sensor_id;sensor_type;location;lat;lon;timestamp;P1;P2;P0
81989;PMS5003;71485;51.638;-0.182;2023-11-21T00:01:51;1;1;
81989;PMS5003;71485;51.638;-0.182;2023-11-21T00:04:11;1;1;
81989;PMS5003;71485;51.638;-0.182;2023-11-21T00:06:37;0;0;
81989;PMS5003;71485;51.638;-0.182;2023-11-21T00:09:02;1;1;
81989;PMS5003;71485;51.638;-0.182;2023-11-21T00:11:28;2;2;
81989;PMS5003;71485;51.638;-0.182;2023-11-21T00:13:54;1;1;
81989;PMS5003;71485;51.638;-0.182;2023-11-21T00:16:19;1;1;
81989;PMS5003;71485;51.638;-0.182;2023-11-21T00:18:45;2;1;
81989;PMS5003;71485;51.638;-0.182;2023-11-21T00:21:10;1;1;
81989;PMS5003;71485;51.638;-0.182;2023-11-21T00:23:36;1;1;
81989;PMS5003;71485;51.638;-0.182;2023-11-21T00:26:03;1;1;
81989;PMS5003;71485;51.638;-0.182;2023-11-21T00:28:28;1;1;
81989;PMS5003;71485;51.638;-0.182;2023-11-21T00:30:53;1;1;
81989;PMS5003;71485;51.638;-0.182;2023-11-21T00:33:19;1;1;
81989;PMS5003;71485;51.638;-0.182;2023-11-21T00:35:44;1;1;
81989;PMS5003;71485;51.638;-0.182;2023-11-21T00:38:11;2;2;
81989;PMS5003;71485;51.638;-0.182;2023-11-21T00:40:35;1;1;
81989;PMS5003;71485;51.638;-0.182;2023-11-21T00:43:03;1;1;
81989;PMS5003;71485;51.638;-0.182;2023-11-21T00:45:30;2;1;
81989;PMS5003;71485;51.638;-0.182;2023-11-21T00:47:52;0;0;
81989;PMS5003;71485;51.638;-0.182;2023-11-21T00:50:18;1;1;
81989;PMS5003;71485;51.638;-0.182;2023-11-21T00:52:44;1;1;
81989;PMS5003;71485;51.638;-0.182;2023-11-21T00:55:09;1;1;
81989;PMS5003;71485;51.638;-0.182;2023-11-21T00:57:35;2;2;
81989;PMS5003;71485;51.638;-0.182;2023-11-21T01:00:00;1;1;
81989;PMS5003;71485;51.638;-0.182;2023-11-21T01:02:26;1;1;
81989;PMS5003;71485;51.638;-0.182;2023-11-21T01:04:51;1;1;
81989;PMS5003;71485;51.638;-0.182;2023-11-21T01:07:17;1;1;
81989;PMS5003;71485;51.638;-0.182;2023-11-21T01:09:43;0;0;
81989;PMS5003;71485;51.638;-0.182;2023-11-21T01:12:09;0;0;
81989;PMS5003;71485;51.638;-0.182;2023-11-21T01:14:34;1;1;
81989;PMS5003;71485;51.638;-0.182;2023-11-21T01:16:59;0;0;
81989;PMS5003;71485;51.638;-0.182;2023-11-21T01:19:26;0;0;
81989;PMS5003;71485;51.638;-0.182;2023-11-21T01:21:51;2;1;
81989;PMS5003;71485;51.638;-0.182;2023-11-21T01:24:16;0;0;
81989;PMS5003;71485;51.638;-0.182;2023-11-21T01:26:43;0;0;
81989;PMS5003;71485;51.638;-0.182;2023-11-21T01:29:08;1;1;
81989;PMS5003;71485;51.638;-0.182;2023-11-21T01:31:33;1;1;
81989;PMS5003;71485;51.638;-0.182;2023-11-21T01:34:00;1;1;
81989;PMS5003;71485;51.638;-0.182;2023-11-21T01:36:29;1;1;
81989;PMS5003;71485;51.638;-0.182;2023-11-21T01:38:51;0;0;
81989;PMS5003;71485;51.638;-0.182;2023-11-21T01:41:16;1;1;
81989;PMS5003;71485;51.638;-0.182;2023-11-21T01:43:43;0;0;
81989;PMS5003;71485;51.638;-0.182;2023-11-21T01:46:07;1;1;
81989;PMS5003;71485;51.638;-0.182;2023-11-21T01:48:33;0;0;
81989;PMS5003;71485;51.638;-0.182;2023-11-21T01:50:58;1;1;
81989;PMS5003;71485;51.638;-0.182;2023-11-21T01:53:25;1;1;
81989;PMS5003;71485;51.638;-0.182;2023-11-21T01:55:49;1;1;
81989;PMS5003;71485;51.638;-0.182;2023-11-21T01:58:15;1;1;
81989;PMS5003;71485;51.638;-0.182;2023-11-21T02:00:41;0;0;
81989;PMS5003;71485;51.638;-0.182;2023-11-21T02:03:06;1;1;
81989;PMS5003;71485;51.638;-0.182;2023-11-21T02:05:32;1;1;
81989;PMS5003;71485;51.638;-0.182;2023-11-21T02:07:58;1;1;
81989;PMS5003;71485;51.638;-0.182;2023-11-21T02:10:24;0;0;
81989;PMS5003;71485;51.638;-0.182;2023-11-21T02:12:50;1;1;
81989;PMS5003;71485;51.638;-0.182;2023-11-21T02:15:14;1;1;
81989;PMS5003;71485;51.638;-0.182;2023-11-21T02:17:40;1;1;
81989;PMS5003;71485;51.638;-0.182;2023-11-21T02:20:06;2;2;
81989;PMS5003;71485;51.638;-0.182;2023-11-21T02:22:32;0;0;
81989;PMS5003;71485;51.638;-0.182;2023-11-21T02:24:57;1;1;
81989;PMS5003;71485;51.638;-0.182;2023-11-21T02:27:24;0;0;
81989;PMS5003;71485;51.638;-0.182;2023-11-21T02:29:49;1;1;
81989;PMS5003;71485;51.638;-0.182;2023-11-21T02:32:14;2;2;
81989;PMS5003;71485;51.638;-0.182;2023-11-21T02:34:39;1;1;
81989;PMS5003;71485;51.638;-0.182;2023-11-21T02:37:05;1;1;
81989;PMS5003;71485;51.638;-0.182;2023-11-21T02:39:31;3;3;
81989;PMS5003;71485;51.638;-0.182;2023-11-21T02:41:56;2;2;
81989;PMS5003;71485;51.638;-0.182;2023-11-21T02:44:23;1;1;
81989;PMS5003;71485;51.638;-0.182;2023-11-21T02:46:47;3;3;
81989;PMS5003;71485;51.638;-0.182;2023-11-21T02:49:13;1;1;
81989;PMS5003;71485;51.638;-0.182;2023-11-21T02:51:39;1;1;
81989;PMS5003;71485;51.638;-0.182;2023-11-21T02:54:05;2;2;
81989;PMS5003;71485;51.638;-0.182;2023-11-21T02:56:30;1;1;
81989;PMS5003;71485;51.638;-0.182;2023-11-21T02:58:56;1;1;
81989;PMS5003;71485;51.638;-0.182;2023-11-21T03:01:21;1;1;
81989;PMS5003;71485;51.638;-0.182;2023-11-21T03:03:47;1;1;
81989;PMS5003;71485;51.638;-0.182;2023-11-21T03:06:12;1;1;
81989;PMS5003;71485;51.638;-0.182;2023-11-21T03:08:39;0;0;
81989;PMS5003;71485;51.638;-0.182;2023-11-21T03:11:05;2;2;
81989;PMS5003;71485;51.638;-0.182;2023-11-21T03:13:30;1;1;
81989;PMS5003;71485;51.638;-0.182;2023-11-21T03:15:56;1;1;
81989;PMS5003;71485;51.638;-0.182;2023-11-21T03:18:21;1;1;
81989;PMS5003;71485;51.638;-0.182;2023-11-21T03:20:46;1;1;
81989;PMS5003;71485;51.638;-0.182;2023-11-21T03:23:12;1;1;
81989;PMS5003;71485;51.638;-0.182;2023-11-21T03:25:39;2;2;
81989;PMS5003;71485;51.638;-0.182;2023-11-21T03:28:03;2;1;
81989;PMS5003;71485;51.638;-0.182;2023-11-21T03:30:29;0;0;
81989;PMS5003;71485;51.638;-0.182;2023-11-21T03:32:54;1;1;
81989;PMS5003;71485;51.638;-0.182;2023-11-21T03:35:20;0;0;
81989;PMS5003;71485;51.638;-0.182;2023-11-21T03:37:47;1;1;
81989;PMS5003;71485;51.638;-0.182;2023-11-21T03:40:11;1;1;
81989;PMS5003;71485;51.638;-0.182;2023-11-21T03:42:38;1;1;
81989;PMS5003;71485;51.638;-0.182;2023-11-21T03:45:04;1;1;
81989;PMS5003;71485;51.638;-0.182;2023-11-21T03:47:28;1;1;
81989;PMS5003;71485;51.638;-0.182;2023-11-21T03:49:54;1;1;
81989;PMS5003;71485;51.638;-0.182;2023-11-21T03:52:20;1;1;
81989;PMS5003;71485;51.638;-0.182;2023-11-21T03:54:46;0;0;
81989;PMS5003;71485;51.638;-0.182;2023-11-21T03:57:11;2;1;
81989;PMS5003;71485;51.638;-0.182;2023-11-21T03:59:36;2;2;
81989;PMS5003;71485;51.638;-0.182;2023-11-21T04:02:02;0;0;
81989;PMS5003;71485;51.638;-0.182;2023-11-21T04:04:27;1;1;
81989;PMS5003;71485;51.638;-0.182;2023-11-21T04:06:53;2;0;
81989;PMS5003;71485;51.638;-0.182;2023-11-21T04:09:19;2;2;
81989;PMS5003;71485;51.638;-0.182;2023-11-21T04:11:45;0;0;
81989;PMS5003;71485;51.638;-0.182;2023-11-21T04:14:10;1;1;
81989;PMS5003;71485;51.638;-0.182;2023-11-21T04:16:37;1;1;
81989;PMS5003;71485;51.638;-0.182;2023-11-21T04:19:01;1;1;
81989;PMS5003;71485;51.638;-0.182;2023-11-21T04:21:27;1;1;
81989;PMS5003;71485;51.638;-0.182;2023-11-21T04:23:52;1;1;
81989;PMS5003;71485;51.638;-0.182;2023-11-21T04:26:19;0;0;
81989;PMS5003;71485;51.638;-0.182;2023-11-21T04:28:43;0;0;
81989;PMS5003;71485;51.638;-0.182;2023-11-21T04:31:09;1;1;
81989;PMS5003;71485;51.638;-0.182;2023-11-21T04:33:35;1;1;
81989;PMS5003;71485;51.638;-0.182;2023-11-21T04:36:00;1;1;
81989;PMS5003;71485;51.638;-0.182;2023-11-21T04:38:27;1;1;
81989;PMS5003;71485;51.638;-0.182;2023-11-21T04:40:52;1;1;
81989;PMS5003;71485;51.638;-0.182;2023-11-21T04:43:19;2;2;
81989;PMS5003;71485;51.638;-0.182;2023-11-21T04:45:43;1;1;
81989;PMS5003;71485;51.638;-0.182;2023-11-21T04:48:08;1;1;
81989;PMS5003;71485;51.638;-0.182;2023-11-21T04:50:35;1;1;
81989;PMS5003;71485;51.638;-0.182;2023-11-21T04:53:02;0;0;
81989;PMS5003;71485;51.638;-0.182;2023-11-21T04:55:25;1;1;
81989;PMS5003;71485;51.638;-0.182;2023-11-21T04:57:51;1;1;
81989;PMS5003;71485;51.638;-0.182;2023-11-21T05:00:17;0;0;
81989;PMS5003;71485;51.638;-0.182;2023-11-21T05:02:42;0;0;
81989;PMS5003;71485;51.638;-0.182;2023-11-21T05:05:09;1;1;
81989;PMS5003;71485;51.638;-0.182;2023-11-21T05:07:33;1;0;
81989;PMS5003;71485;51.638;-0.182;2023-11-21T05:09:59;1;1;
81989;PMS5003;71485;51.638;-0.182;2023-11-21T05:12:26;1;1;
81989;PMS5003;71485;51.638;-0.182;2023-11-21T05:14:50;0;0;
81989;PMS5003;71485;51.638;-0.182;2023-11-21T05:17:16;1;1;
81989;PMS5003;71485;51.638;-0.182;2023-11-21T05:19:42;1;1;
81989;PMS5003;71485;51.638;-0.182;2023-11-21T05:22:08;0;0;
81989;PMS5003;71485;51.638;-0.182;2023-11-21T05:24:33;0;0;
81989;PMS5003;71485;51.638;-0.182;2023-11-21T05:26:59;1;1;
81989;PMS5003;71485;51.638;-0.182;2023-11-21T05:29:24;0;0;
81989;PMS5003;71485;51.638;-0.182;2023-11-21T05:31:50;0;0;
81989;PMS5003;71485;51.638;-0.182;2023-11-21T05:34:15;0;0;
81989;PMS5003;71485;51.638;-0.182;2023-11-21T05:36:42;1;1;
81989;PMS5003;71485;51.638;-0.182;2023-11-21T05:39:07;0;0;
81989;PMS5003;71485;51.638;-0.182;2023-11-21T05:41:33;0;0;
81989;PMS5003;71485;51.638;-0.182;2023-11-21T05:43:59;1;1;
81989;PMS5003;71485;51.638;-0.182;2023-11-21T05:46:23;1;1;
81989;PMS5003;71485;51.638;-0.182;2023-11-21T05:48:49;0;0;
81989;PMS5003;71485;51.638;-0.182;2023-11-21T05:51:19;1;0;
81989;PMS5003;71485;51.638;-0.182;2023-11-21T05:53:40;1;1;
81989;PMS5003;71485;51.638;-0.182;2023-11-21T05:56:07;0;0;
81989;PMS5003;71485;51.638;-0.182;2023-11-21T05:58:32;0;0;
81989;PMS5003;71485;51.638;-0.182;2023-11-21T06:00:59;1;1;
81989;PMS5003;71485;51.638;-0.182;2023-11-21T06:03:23;0;0;
81989;PMS5003;71485;51.638;-0.182;2023-11-21T06:05:48;0;0;
81989;PMS5003;71485;51.638;-0.182;2023-11-21T06:08:14;0;0;
81989;PMS5003;71485;51.638;-0.182;2023-11-21T06:10:41;1;1;
81989;PMS5003;71485;51.638;-0.182;2023-11-21T06:13:06;0;0;
81989;PMS5003;71485;51.638;-0.182;2023-11-21T06:15:31;0;0;
81989;PMS5003;71485;51.638;-0.182;2023-11-21T06:17:56;0;0;
81989;PMS5003;71485;51.638;-0.182;2023-11-21T06:20:22;1;1;
81989;PMS5003;71485;51.638;-0.182;2023-11-21T06:22:48;1;1;
81989;PMS5003;71485;51.638;-0.182;2023-11-21T06:25:13;1;1;
81989;PMS5003;71485;51.638;-0.182;2023-11-21T06:27:41;1;1;
81989;PMS5003;71485;51.638;-0.182;2023-11-21T06:30:07;1;1;
81989;PMS5003;71485;51.638;-0.182;2023-11-21T06:32:30;0;0;
81989;PMS5003;71485;51.638;-0.182;2023-11-21T06:34:56;1;1;
81989;PMS5003;71485;51.638;-0.182;2023-11-21T06:37:21;1;1;
81989;PMS5003;71485;51.638;-0.182;2023-11-21T06:39:48;1;1;
81989;PMS5003;71485;51.638;-0.182;2023-11-21T06:42:12;0;0;
81989;PMS5003;71485;51.638;-0.182;2023-11-21T06:44:39;1;1;
81989;PMS5003;71485;51.638;-0.182;2023-11-21T06:47:04;1;1;
81989;PMS5003;71485;51.638;-0.182;2023-11-21T06:49:29;1;1;
81989;PMS5003;71485;51.638;-0.182;2023-11-21T06:51:56;1;1;
81989;PMS5003;71485;51.638;-0.182;2023-11-21T06:54:20;0;0;
81989;PMS5003;71485;51.638;-0.182;2023-11-21T06:56:47;0;0;
81989;PMS5003;71485;51.638;-0.182;2023-11-21T06:59:12;0;0;
81989;PMS5003;71485;51.638;-0.182;2023-11-21T07:01:40;0;0;
81989;PMS5003;71485;51.638;-0.182;2023-11-21T07:04:04;0;0;
81989;PMS5003;71485;51.638;-0.182;2023-11-21T07:06:29;2;1;
81989;PMS5003;71485;51.638;-0.182;2023-11-21T07:08:54;1;1;
81989;PMS5003;71485;51.638;-0.182;2023-11-21T07:11:21;1;1;
81989;PMS5003;71485;51.638;-0.182;2023-11-21T07:13:46;1;1;
81989;PMS5003;71485;51.638;-0.182;2023-11-21T07:16:12;0;0;
81989;PMS5003;71485;51.638;-0.182;2023-11-21T07:18:37;1;1;
81989;PMS5003;71485;51.638;-0.182;2023-11-21T07:21:02;0;0;
81989;PMS5003;71485;51.638;-0.182;2023-11-21T07:23:28;2;1;
81989;PMS5003;71485;51.638;-0.182;2023-11-21T07:25:55;0;0;
81989;PMS5003;71485;51.638;-0.182;2023-11-21T07:28:19;0;0;
81989;PMS5003;71485;51.638;-0.182;2023-11-21T07:30:45;1;1;
81989;PMS5003;71485;51.638;-0.182;2023-11-21T07:33:10;1;1;
81989;PMS5003;71485;51.638;-0.182;2023-11-21T07:35:36;0;0;
81989;PMS5003;71485;51.638;-0.182;2023-11-21T07:38:03;2;2;
81989;PMS5003;71485;51.638;-0.182;2023-11-21T07:40:27;1;1;
81989;PMS5003;71485;51.638;-0.182;2023-11-21T07:42:53;2;2;
81989;PMS5003;71485;51.638;-0.182;2023-11-21T07:45:18;1;1;
81989;PMS5003;71485;51.638;-0.182;2023-11-21T07:47:44;1;1;
81989;PMS5003;71485;51.638;-0.182;2023-11-21T07:50:10;0;0;
81989;PMS5003;71485;51.638;-0.182;2023-11-21T07:52:36;1;1;
81989;PMS5003;71485;51.638;-0.182;2023-11-21T07:55:01;1;1;
81989;PMS5003;71485;51.638;-0.182;2023-11-21T07:57:26;1;1;
81989;PMS5003;71485;51.638;-0.182;2023-11-21T07:59:52;4;4;
81989;PMS5003;71485;51.638;-0.182;2023-11-21T08:02:22;8;8;
81989;PMS5003;71485;51.638;-0.182;2023-11-21T08:04:43;13;12;
81989;PMS5003;71485;51.638;-0.182;2023-11-21T08:07:08;14;14;
81989;PMS5003;71485;51.638;-0.182;2023-11-21T08:09:35;21;20;
81989;PMS5003;71485;51.638;-0.182;2023-11-21T08:12:03;22;22;
81989;PMS5003;71485;51.638;-0.182;2023-11-21T08:14:24;28;28;
81989;PMS5003;71485;51.638;-0.182;2023-11-21T08:16:50;23;23;
81989;PMS5003;71485;51.638;-0.182;2023-11-21T08:19:15;26;26;
81989;PMS5003;71485;51.638;-0.182;2023-11-21T08:21:41;24;24;
81989;PMS5003;71485;51.638;-0.182;2023-11-21T08:24:07;25;25;
81989;PMS5003;71485;51.638;-0.182;2023-11-21T08:26:33;29;25;
81989;PMS5003;71485;51.638;-0.182;2023-11-21T08:28:57;22;22;
81989;PMS5003;71485;51.638;-0.182;2023-11-21T08:31:24;25;22;
81989;PMS5003;71485;51.638;-0.182;2023-11-21T08:33:48;23;21;
81989;PMS5003;71485;51.638;-0.182;2023-11-21T08:36:12;23;22;
81989;PMS5003;71485;51.638;-0.182;2023-11-21T08:38:39;23;23;
81989;PMS5003;71485;51.638;-0.182;2023-11-21T08:41:04;20;19;
81989;PMS5003;71485;51.638;-0.182;2023-11-21T08:43:30;21;21;
81989;PMS5003;71485;51.638;-0.182;2023-11-21T08:45:54;22;22;
81989;PMS5003;71485;51.638;-0.182;2023-11-21T08:48:19;19;18;
81989;PMS5003;71485;51.638;-0.182;2023-11-21T08:50:45;20;20;
81989;PMS5003;71485;51.638;-0.182;2023-11-21T08:53:11;17;17;
81989;PMS5003;71485;51.638;-0.182;2023-11-21T08:55:35;19;18;
81989;PMS5003;71485;51.638;-0.182;2023-11-21T08:58:01;16;16;
81989;PMS5003;71485;51.638;-0.182;2023-11-21T09:00:27;12;12;
81989;PMS5003;71485;51.638;-0.182;2023-11-21T09:02:52;16;16;
81989;PMS5003;71485;51.638;-0.182;2023-11-21T09:05:17;15;14;
81989;PMS5003;71485;51.638;-0.182;2023-11-21T09:07:42;15;15;
81989;PMS5003;71485;51.638;-0.182;2023-11-21T09:10:08;16;16;
81989;PMS5003;71485;51.638;-0.182;2023-11-21T09:12:34;13;13;
81989;PMS5003;71485;51.638;-0.182;2023-11-21T09:14:58;16;16;
81989;PMS5003;71485;51.638;-0.182;2023-11-21T09:17:24;15;15;
81989;PMS5003;71485;51.638;-0.182;2023-11-21T09:19:50;16;15;
81989;PMS5003;71485;51.638;-0.182;2023-11-21T09:22:15;12;12;
81989;PMS5003;71485;51.638;-0.182;2023-11-21T09:24:45;13;13;
81989;PMS5003;71485;51.638;-0.182;2023-11-21T09:27:08;14;14;
81989;PMS5003;71485;51.638;-0.182;2023-11-21T09:29:32;11;11;
81989;PMS5003;71485;51.638;-0.182;2023-11-21T09:31:58;13;12;
81989;PMS5003;71485;51.638;-0.182;2023-11-21T09:34:23;13;12;
81989;PMS5003;71485;51.638;-0.182;2023-11-21T09:36:49;18;17;
81989;PMS5003;71485;51.638;-0.182;2023-11-21T09:39:18;19;15;
81989;PMS5003;71485;51.638;-0.182;2023-11-21T09:41:42;18;17;
81989;PMS5003;71485;51.638;-0.182;2023-11-21T09:44:07;16;15;
81989;PMS5003;71485;51.638;-0.182;2023-11-21T09:46:31;15;14;
81989;PMS5003;71485;51.638;-0.182;2023-11-21T09:48:55;18;17;
81989;PMS5003;71485;51.638;-0.182;2023-11-21T09:51:22;13;12;
81989;PMS5003;71485;51.638;-0.182;2023-11-21T09:53:46;21;18;
81989;PMS5003;71485;51.638;-0.182;2023-11-21T09:56:11;13;12;
81989;PMS5003;71485;51.638;-0.182;2023-11-21T09:58:36;15;14;
81989;PMS5003;71485;51.638;-0.182;2023-11-21T10:01:02;13;13;
81989;PMS5003;71485;51.638;-0.182;2023-11-21T10:03:28;12;12;
81989;PMS5003;71485;51.638;-0.182;2023-11-21T10:05:52;13;12;
81989;PMS5003;71485;51.638;-0.182;2023-11-21T10:08:18;13;12;
81989;PMS5003;71485;51.638;-0.182;2023-11-21T10:10:45;12;10;
81989;PMS5003;71485;51.638;-0.182;2023-11-21T10:13:11;11;11;
81989;PMS5003;71485;51.638;-0.182;2023-11-21T10:15:34;10;10;
81989;PMS5003;71485;51.638;-0.182;2023-11-21T10:17:59;9;7;
81989;PMS5003;71485;51.638;-0.182;2023-11-21T10:20:26;11;10;
81989;PMS5003;71485;51.638;-0.182;2023-11-21T10:22:50;12;9;
81989;PMS5003;71485;51.638;-0.182;2023-11-21T10:25:16;10;8;
81989;PMS5003;71485;51.638;-0.182;2023-11-21T10:27:42;8;7;
81989;PMS5003;71485;51.638;-0.182;2023-11-21T10:30:07;7;7;
81989;PMS5003;71485;51.638;-0.182;2023-11-21T10:32:32;10;10;
81989;PMS5003;71485;51.638;-0.182;2023-11-21T10:34:58;7;7;
81989;PMS5003;71485;51.638;-0.182;2023-11-21T10:37:23;9;8;
81989;PMS5003;71485;51.638;-0.182;2023-11-21T10:39:50;7;6;
81989;PMS5003;71485;51.638;-0.182;2023-11-21T10:42:14;7;7;
81989;PMS5003;71485;51.638;-0.182;2023-11-21T10:44:41;9;8;
81989;PMS5003;71485;51.638;-0.182;2023-11-21T10:47:08;5;5;
81989;PMS5003;71485;51.638;-0.182;2023-11-21T10:49:31;7;7;
81989;PMS5003;71485;51.638;-0.182;2023-11-21T10:51:58;5;5;
81989;PMS5003;71485;51.638;-0.182;2023-11-21T10:54:22;6;5;
81989;PMS5003;71485;51.638;-0.182;2023-11-21T10:56:48;4;4;
81989;PMS5003;71485;51.638;-0.182;2023-11-21T10:59:13;7;6;
81989;PMS5003;71485;51.638;-0.182;2023-11-21T11:01:40;8;7;
81989;PMS5003;71485;51.638;-0.182;2023-11-21T11:04:05;7;7;
81989;PMS5003;71485;51.638;-0.182;2023-11-21T11:06:30;6;5;
81989;PMS5003;71485;51.638;-0.182;2023-11-21T11:08:55;6;5;
81989;PMS5003;71485;51.638;-0.182;2023-11-21T11:11:21;6;6;
81989;PMS5003;71485;51.638;-0.182;2023-11-21T11:13:52;7;7;
81989;PMS5003;71485;51.638;-0.182;2023-11-21T11:16:12;6;5;
81989;PMS5003;71485;51.638;-0.182;2023-11-21T11:18:38;5;4;
81989;PMS5003;71485;51.638;-0.182;2023-11-21T11:21:07;5;5;
81989;PMS5003;71485;51.638;-0.182;2023-11-21T11:23:34;7;5;
81989;PMS5003;71485;51.638;-0.182;2023-11-21T11:26:01;5;4;
81989;PMS5003;71485;51.638;-0.182;2023-11-21T11:28:21;3;3;
81989;PMS5003;71485;51.638;-0.182;2023-11-21T11:30:50;3;3;
81989;PMS5003;71485;51.638;-0.182;2023-11-21T11:33:14;3;3;
81989;PMS5003;71485;51.638;-0.182;2023-11-21T11:35:41;3;2;
81989;PMS5003;71485;51.638;-0.182;2023-11-21T11:38:03;2;2;
81989;PMS5003;71485;51.638;-0.182;2023-11-21T11:42:56;4;4;
81989;PMS5003;71485;51.638;-0.182;2023-11-21T11:45:21;3;2;
81989;PMS5003;71485;51.638;-0.182;2023-11-21T11:47:45;1;1;
81989;PMS5003;71485;51.638;-0.182;2023-11-21T11:50:11;2;2;
81989;PMS5003;71485;51.638;-0.182;2023-11-21T11:52:38;4;3;
81989;PMS5003;71485;51.638;-0.182;2023-11-21T11:55:02;4;4;
81989;PMS5003;71485;51.638;-0.182;2023-11-21T11:57:29;3;2;
81989;PMS5003;71485;51.638;-0.182;2023-11-21T12:02:22;3;3;
81989;PMS5003;71485;51.638;-0.182;2023-11-21T12:04:44;3;2;
81989;PMS5003;71485;51.638;-0.182;2023-11-21T12:07:10;5;4;
81989;PMS5003;71485;51.638;-0.182;2023-11-21T12:09:36;1;1;
81989;PMS5003;71485;51.638;-0.182;2023-11-21T12:12:02;1;1;
81989;PMS5003;71485;51.638;-0.182;2023-11-21T12:14:27;3;2;
81989;PMS5003;71485;51.638;-0.182;2023-11-21T12:16:54;4;3;
81989;PMS5003;71485;51.638;-0.182;2023-11-21T12:19:18;3;3;
81989;PMS5003;71485;51.638;-0.182;2023-11-21T12:21:44;2;1;
81989;PMS5003;71485;51.638;-0.182;2023-11-21T12:24:09;2;2;
81989;PMS5003;71485;51.638;-0.182;2023-11-21T12:26:36;2;2;
81989;PMS5003;71485;51.638;-0.182;2023-11-21T12:29:00;2;2;
81989;PMS5003;71485;51.638;-0.182;2023-11-21T12:31:26;3;3;
81989;PMS5003;71485;51.638;-0.182;2023-11-21T12:33:51;3;3;
81989;PMS5003;71485;51.638;-0.182;2023-11-21T12:36:17;1;1;
81989;PMS5003;71485;51.638;-0.182;2023-11-21T12:38:43;1;1;
81989;PMS5003;71485;51.638;-0.182;2023-11-21T12:41:08;1;1;
81989;PMS5003;71485;51.638;-0.182;2023-11-21T12:43:35;3;3;
81989;PMS5003;71485;51.638;-0.182;2023-11-21T12:46:04;1;1;
81989;PMS5003;71485;51.638;-0.182;2023-11-21T12:48:25;2;2;
81989;PMS5003;71485;51.638;-0.182;2023-11-21T12:50:52;1;0;
81989;PMS5003;71485;51.638;-0.182;2023-11-21T12:53:16;4;3;
81989;PMS5003;71485;51.638;-0.182;2023-11-21T12:55:43;2;2;
81989;PMS5003;71485;51.638;-0.182;2023-11-21T12:58:08;2;2;
81989;PMS5003;71485;51.638;-0.182;2023-11-21T13:00:33;1;1;
81989;PMS5003;71485;51.638;-0.182;2023-11-21T13:02:59;1;1;
81989;PMS5003;71485;51.638;-0.182;2023-11-21T13:05:26;1;1;
81989;PMS5003;71485;51.638;-0.182;2023-11-21T13:07:49;1;1;
81989;PMS5003;71485;51.638;-0.182;2023-11-21T13:10:16;3;2;
81989;PMS5003;71485;51.638;-0.182;2023-11-21T13:12:43;2;2;
81989;PMS5003;71485;51.638;-0.182;2023-11-21T13:15:08;1;1;
81989;PMS5003;71485;51.638;-0.182;2023-11-21T13:17:32;1;1;
81989;PMS5003;71485;51.638;-0.182;2023-11-21T13:19:57;1;1;
81989;PMS5003;71485;51.638;-0.182;2023-11-21T13:22:24;1;1;
81989;PMS5003;71485;51.638;-0.182;2023-11-21T13:24:48;1;1;
81989;PMS5003;71485;51.638;-0.182;2023-11-21T13:27:15;1;1;
81989;PMS5003;71485;51.638;-0.182;2023-11-21T13:29:40;2;1;
81989;PMS5003;71485;51.638;-0.182;2023-11-21T13:32:05;1;1;
81989;PMS5003;71485;51.638;-0.182;2023-11-21T13:34:31;2;2;
81989;PMS5003;71485;51.638;-0.182;2023-11-21T13:36:56;1;1;
81989;PMS5003;71485;51.638;-0.182;2023-11-21T13:39:24;1;1;
81989;PMS5003;71485;51.638;-0.182;2023-11-21T13:41:51;1;1;
81989;PMS5003;71485;51.638;-0.182;2023-11-21T13:44:14;1;1;
81989;PMS5003;71485;51.638;-0.182;2023-11-21T13:46:39;2;2;
81989;PMS5003;71485;51.638;-0.182;2023-11-21T13:49:04;0;0;
81989;PMS5003;71485;51.638;-0.182;2023-11-21T13:51:32;0;0;
81989;PMS5003;71485;51.638;-0.182;2023-11-21T13:53:56;2;2;
81989;PMS5003;71485;51.638;-0.182;2023-11-21T13:56:22;2;2;
81989;PMS5003;71485;51.638;-0.182;2023-11-21T13:58:47;1;1;
81989;PMS5003;71485;51.638;-0.182;2023-11-21T14:01:14;1;1;
81989;PMS5003;71485;51.638;-0.182;2023-11-21T14:03:38;1;1;
81989;PMS5003;71485;51.638;-0.182;2023-11-21T14:06:04;2;1;
81989;PMS5003;71485;51.638;-0.182;2023-11-21T14:08:29;0;0;
81989;PMS5003;71485;51.638;-0.182;2023-11-21T14:10:55;0;0;
81989;PMS5003;71485;51.638;-0.182;2023-11-21T14:13:24;1;1;
81989;PMS5003;71485;51.638;-0.182;2023-11-21T14:15:46;0;0;
81989;PMS5003;71485;51.638;-0.182;2023-11-21T14:18:11;1;1;
81989;PMS5003;71485;51.638;-0.182;2023-11-21T14:20:37;1;1;
81989;PMS5003;71485;51.638;-0.182;2023-11-21T14:23:03;1;1;
81989;PMS5003;71485;51.638;-0.182;2023-11-21T14:25:31;0;0;
81989;PMS5003;71485;51.638;-0.182;2023-11-21T14:27:54;0;0;
81989;PMS5003;71485;51.638;-0.182;2023-11-21T14:30:19;1;1;
81989;PMS5003;71485;51.638;-0.182;2023-11-21T14:32:45;0;0;
81989;PMS5003;71485;51.638;-0.182;2023-11-21T14:35:11;1;1;
81989;PMS5003;71485;51.638;-0.182;2023-11-21T14:37:38;0;0;
81989;PMS5003;71485;51.638;-0.182;2023-11-21T14:40:02;1;1;
81989;PMS5003;71485;51.638;-0.182;2023-11-21T14:42:33;0;0;
81989;PMS5003;71485;51.638;-0.182;2023-11-21T14:44:53;0;0;
81989;PMS5003;71485;51.638;-0.182;2023-11-21T14:47:19;1;1;
81989;PMS5003;71485;51.638;-0.182;2023-11-21T14:49:44;0;0;
81989;PMS5003;71485;51.638;-0.182;2023-11-21T14:52:11;0;0;
81989;PMS5003;71485;51.638;-0.182;2023-11-21T14:54:35;1;0;
81989;PMS5003;71485;51.638;-0.182;2023-11-21T14:57:03;0;0;
81989;PMS5003;71485;51.638;-0.182;2023-11-21T14:59:27;1;1;
81989;PMS5003;71485;51.638;-0.182;2023-11-21T15:01:52;0;0;
81989;PMS5003;71485;51.638;-0.182;2023-11-21T15:04:19;1;0;
81989;PMS5003;71485;51.638;-0.182;2023-11-21T15:06:43;0;0;
81989;PMS5003;71485;51.638;-0.182;2023-11-21T15:09:09;1;1;
81989;PMS5003;71485;51.638;-0.182;2023-11-21T15:11:40;0;0;
81989;PMS5003;71485;51.638;-0.182;2023-11-21T15:14:01;2;1;
81989;PMS5003;71485;51.638;-0.182;2023-11-21T15:16:26;0;0;
81989;PMS5003;71485;51.638;-0.182;2023-11-21T15:18:51;2;1;
81989;PMS5003;71485;51.638;-0.182;2023-11-21T15:21:17;2;2;
81989;PMS5003;71485;51.638;-0.182;2023-11-21T15:23:44;2;0;
81989;PMS5003;71485;51.638;-0.182;2023-11-21T15:26:09;1;1;
81989;PMS5003;71485;51.638;-0.182;2023-11-21T15:28:34;1;1;
81989;PMS5003;71485;51.638;-0.182;2023-11-21T15:30:59;0;0;
81989;PMS5003;71485;51.638;-0.182;2023-11-21T15:33:25;0;0;
81989;PMS5003;71485;51.638;-0.182;2023-11-21T15:35:51;0;0;
81989;PMS5003;71485;51.638;-0.182;2023-11-21T15:38:19;4;2;
81989;PMS5003;71485;51.638;-0.182;2023-11-21T15:40:42;0;0;
81989;PMS5003;71485;51.638;-0.182;2023-11-21T15:43:08;0;0;
81989;PMS5003;71485;51.638;-0.182;2023-11-21T15:45:33;1;1;
81989;PMS5003;71485;51.638;-0.182;2023-11-21T15:47:58;0;0;
81989;PMS5003;71485;51.638;-0.182;2023-11-21T15:50:24;2;1;
81989;PMS5003;71485;51.638;-0.182;2023-11-21T15:52:51;0;0;
81989;PMS5003;71485;51.638;-0.182;2023-11-21T15:55:15;2;1;
81989;PMS5003;71485;51.638;-0.182;2023-11-21T15:57:41;1;1;
81989;PMS5003;71485;51.638;-0.182;2023-11-21T16:00:08;2;1;
81989;PMS5003;71485;51.638;-0.182;2023-11-21T16:02:33;1;0;
81989;PMS5003;71485;51.638;-0.182;2023-11-21T16:04:58;1;1;
81989;PMS5003;71485;51.638;-0.182;2023-11-21T16:07:23;1;1;
81989;PMS5003;71485;51.638;-0.182;2023-11-21T16:09:49;0;0;
81989;PMS5003;71485;51.638;-0.182;2023-11-21T16:12:16;1;1;
81989;PMS5003;71485;51.638;-0.182;2023-11-21T16:14:42;1;1;
81989;PMS5003;71485;51.638;-0.182;2023-11-21T16:17:05;2;2;
81989;PMS5003;71485;51.638;-0.182;2023-11-21T16:19:32;2;2;
81989;PMS5003;71485;51.638;-0.182;2023-11-21T16:21:56;1;1;